Time;durP1;ratioP1;P1;durP2;ratioP2;P2;SDS_P1;SDS_P2;PMS_P1;PMS_P2;Temp;Humidity;BMP_temperature;BMP_pressure;BME280_temperature;BME280_humidity;BME280_pressure;Samples;Min_cycle;Max_cycle;Signal;HPM_P1;HPM_P2
2023/10/22 00:01:40;;;;;;;24.50;3.60;;;22.90;56.90;;;23.41;41.53;94819.50;5080150;28;20488;-60
2023/10/22 00:04:07;;;;;;;11.77;3.87;;;22.90;57.00;;;23.39;40.89;94818.06;5078159;28;20454;-60
2023/10/22 00:06:34;;;;;;;13.80;3.20;;;22.90;57.00;;;23.34;41.54;94813.38;5079676;28;20989;-61
2023/10/22 00:09:01;;;;;;;18.00;3.00;;;22.80;57.10;;;23.30;41.08;94803.28;5077355;28;20520;-59
2023/10/22 00:11:29;;;;;;;17.97;4.70;;;22.80;57.10;;;23.29;41.01;94805.16;5080354;28;20493;-63
2023/10/22 00:13:56;;;;;;;6.53;3.00;;;22.80;57.00;;;23.25;40.86;94796.75;5078564;28;20450;-62
2023/10/22 00:16:25;;;;;;;22.87;3.40;;;22.70;56.80;;;23.24;41.17;94803.13;5081478;28;21091;-60
2023/10/22 00:18:53;;;;;;;4.50;3.00;;;22.70;57.00;;;23.22;41.61;94805.22;5080576;28;20890;-61
2023/10/22 00:21:20;;;;;;;7.80;2.70;;;22.70;57.10;;;23.19;41.20;94805.66;5077340;28;20632;-64
2023/10/22 00:23:47;;;;;;;14.27;4.43;;;22.70;56.90;;;23.17;41.00;94802.38;5077465;28;20482;-63
2023/10/22 00:26:15;;;;;;;11.07;3.77;;;22.60;56.70;;;23.16;41.01;94795.38;5076896;28;20531;-65
2023/10/22 00:28:42;;;;;;;11.33;2.57;;;22.60;56.70;;;23.17;41.09;94797.00;5076427;28;20447;-60
2023/10/22 00:31:09;;;;;;;8.53;2.90;;;22.60;56.70;;;23.17;41.37;94806.91;5080024;28;20592;-61
2023/10/22 00:33:38;;;;;;;17.80;4.03;;;22.60;56.70;;;23.16;41.44;94816.84;5076899;28;20446;-63
2023/10/22 00:36:06;;;;;;;10.90;3.20;;;22.60;56.70;;;23.14;41.48;94805.50;5084015;28;20469;-60
2023/10/22 00:38:33;;;;;;;8.87;3.27;;;22.60;56.70;;;23.14;41.18;94810.84;5081435;28;20524;-62
2023/10/22 00:41:00;;;;;;;9.47;3.47;;;22.60;56.70;;;23.13;40.39;94790.44;5084224;28;20557;-61
2023/10/22 00:43:27;;;;;;;16.07;3.50;;;22.60;56.70;;;23.14;40.79;94794.75;5080914;28;21039;-63
2023/10/22 00:45:55;;;;;;;12.10;3.33;;;22.60;56.70;;;23.17;40.58;94790.81;5083697;28;20454;-61
2023/10/22 00:48:22;;;;;;;18.10;3.60;;;22.60;56.70;;;23.17;41.29;94783.59;5081325;28;20473;-63
2023/10/22 00:50:51;;;;;;;7.20;3.20;;;22.60;56.70;;;23.18;41.38;94789.78;5083578;28;20609;-62
2023/10/22 00:53:18;;;;;;;12.23;2.90;;;22.60;56.70;;;23.18;41.38;94787.91;5081425;28;20451;-60
2023/10/22 00:55:46;;;;;;;8.60;3.27;;;22.60;56.70;;;23.17;41.16;94780.91;5082339;28;20443;-60
2023/10/22 00:58:14;;;;;;;19.67;3.40;;;22.60;57.20;;;23.18;41.54;94773.69;5081904;28;20453;-61
2023/10/22 01:00:41;;;;;;;12.90;3.30;;;22.60;57.10;;;23.16;41.66;94771.22;5081960;28;20451;-60
2023/10/22 01:03:08;;;;;;;8.50;2.37;;;22.60;57.40;;;23.15;41.38;94780.31;5081586;28;20446;-62
2023/10/22 01:05:37;;;;;;;21.33;3.00;;;22.60;57.50;;;23.12;41.36;94775.38;5082567;28;20524;-61
2023/10/22 01:08:06;;;;;;;25.67;3.10;;;22.60;57.50;;;23.10;41.77;94774.78;5083070;28;20526;-65
2023/10/22 01:10:33;;;;;;;10.40;3.33;;;22.60;57.50;;;23.08;41.77;94772.34;5082655;28;21101;-64
2023/10/22 01:13:01;;;;;;;12.60;3.67;;;22.60;57.80;;;23.07;41.75;94772.53;5081436;28;20598;-61
2023/10/22 01:15:28;;;;;;;18.77;3.10;;;22.50;57.70;;;23.08;41.42;94771.47;5082293;28;20482;-63
2023/10/22 01:17:55;;;;;;;8.60;3.00;;;22.50;57.50;;;23.06;41.64;94777.03;5081213;28;20970;-59
2023/10/22 01:20:23;;;;;;;13.67;3.53;;;22.50;57.60;;;23.04;41.05;94776.44;5081341;28;20448;-64
2023/10/22 01:22:50;;;;;;;10.80;2.97;;;22.50;57.30;;;23.04;41.62;94781.00;5081647;28;20474;-64
2023/10/22 01:25:19;;;;;;;10.67;3.07;;;22.50;57.20;;;23.04;41.75;94781.00;5081995;28;20872;-62
2023/10/22 01:27:47;;;;;;;19.53;3.73;;;22.50;57.20;;;23.04;41.05;94779.13;5082666;28;20578;-64
2023/10/22 01:30:14;;;;;;;15.67;3.67;;;22.50;57.20;;;23.05;41.54;94777.25;5081896;28;20486;-60
2023/10/22 01:32:42;;;;;;;12.93;3.17;;;22.50;57.10;;;23.04;41.02;94778.31;5082262;28;20473;-64
2023/10/22 01:35:10;;;;;;;9.43;3.60;;;22.50;57.30;;;23.04;41.14;94795.22;5081329;28;20482;-60
2023/10/22 01:37:37;;;;;;;14.30;3.27;;;22.50;57.40;;;23.04;41.05;94797.09;5080191;28;20470;-64
2023/10/22 01:40:06;;;;;;;15.97;3.40;;;22.50;57.50;;;23.03;41.76;94793.59;5083650;28;20450;-59
2023/10/22 01:42:35;;;;;;;6.50;2.63;;;22.50;57.60;;;23.04;41.26;94799.78;5082028;28;20466;-63
2023/10/22 01:45:02;;;;;;;12.27;2.80;;;22.50;57.60;;;23.02;41.24;94791.13;5081995;28;20450;-63
2023/10/22 01:47:29;;;;;;;13.83;3.90;;;22.50;57.80;;;23.02;41.33;94796.47;5079855;28;20869;-59
2023/10/22 01:49:57;;;;;;;10.53;3.53;;;22.40;58.00;;;22.98;42.10;94793.44;5082202;28;20826;-64
2023/10/22 01:52:24;;;;;;;7.23;2.73;;;22.40;58.30;;;22.99;41.79;94791.56;5080529;28;20499;-59
2023/10/22 01:54:52;;;;;;;13.07;3.10;;;22.40;58.40;;;22.97;42.07;94790.97;5081992;28;20449;-60
2023/10/22 01:57:19;;;;;;;14.50;4.00;;;22.40;58.70;;;22.93;43.03;94790.59;5080504;28;20466;-59
2023/10/22 01:59:48;;;;;;;18.37;3.90;;;22.40;59.70;;;22.90;43.45;94780.28;5082292;28;20508;-60
2023/10/22 02:02:15;;;;;;;11.87;4.40;;;22.30;59.30;;;22.84;43.10;94783.84;5079918;28;20475;-61
2023/10/22 02:04:43;;;;;;;19.20;4.07;;;22.30;59.60;;;22.78;43.87;94772.13;5082006;28;20522;-60
2023/10/22 02:07:10;;;;;;;17.47;3.83;;;22.30;60.10;;;22.73;43.62;94785.38;5079844;28;20474;-66
2023/10/22 02:09:38;;;;;;;15.97;4.03;;;22.20;60.10;;;22.66;43.99;94772.00;5084343;28;20446;-59
2023/10/22 02:12:08;;;;;;;11.80;3.90;;;22.10;60.40;;;22.61;43.87;94777.19;5078787;28;20537;-60
2023/10/22 02:14:36;;;;;;;13.73;3.87;;;22.10;60.70;;;22.56;44.14;94787.75;5081723;28;20540;-61
2023/10/22 02:17:05;;;;;;;14.77;3.90;;;22.00;60.70;;;22.50;44.06;94784.06;5079311;28;20478;-64
2023/10/22 02:19:32;;;;;;;27.80;5.80;;;22.00;61.10;;;22.46;44.52;94784.72;5081606;28;20557;-60
2023/10/22 02:21:59;;;;;;;13.83;4.70;;;21.90;61.10;;;22.43;44.62;94766.41;5079737;28;20538;-63
2023/10/22 02:24:28;;;;;;;19.30;4.47;;;21.90;61.20;;;22.40;44.50;94774.88;5082092;28;20561;-61
2023/10/22 02:26:55;;;;;;;13.37;4.13;;;21.80;61.80;;;22.36;44.59;94771.81;5079109;28;20471;-61
2023/10/22 02:29:23;;;;;;;10.83;3.40;;;21.80;61.80;;;22.32;44.86;94757.19;5082452;28;20449;-64
2023/10/22 02:31:50;;;;;;;12.63;4.00;;;21.80;61.80;;;22.27;45.03;94748.94;5079017;28;20994;-62
2023/10/22 02:34:19;;;;;;;19.83;4.53;;;21.70;61.80;;;22.24;44.64;94754.75;5082395;28;20442;-64
2023/10/22 02:36:46;;;;;;;20.20;3.90;;;21.70;62.00;;;22.21;44.76;94745.25;5079328;28;20754;-61
2023/10/22 02:39:13;;;;;;;15.40;4.30;;;21.60;62.40;;;22.16;45.26;94777.25;5082167;28;20474;-63
2023/10/22 02:41:41;;;;;;;20.60;4.20;;;21.60;62.40;;;22.12;45.32;94768.81;5078843;28;20544;-59
2023/10/22 02:44:08;;;;;;;9.27;4.03;;;21.60;62.60;;;22.09;44.83;94785.31;5082738;28;20454;-60
2023/10/22 02:46:35;;;;;;;10.93;3.80;;;21.60;62.60;;;22.07;45.92;94763.28;5082418;28;20473;-63
2023/10/22 02:49:03;;;;;;;9.00;3.50;;;21.50;63.00;;;22.03;45.12;94778.97;5078394;28;20881;-61
2023/10/22 02:51:33;;;;;;;19.97;4.17;;;21.50;62.90;;;22.02;45.41;94784.53;5081983;28;20501;-59
2023/10/22 02:54:00;;;;;;;10.40;3.63;;;21.50;63.30;;;21.97;45.29;94762.94;5082326;28;20457;-59
2023/10/22 02:56:27;;;;;;;21.27;5.10;;;21.40;63.30;;;21.94;45.79;94780.22;5078627;28;20467;-64
2023/10/22 02:58:54;;;;;;;10.27;3.90;;;21.40;63.40;;;21.90;45.96;94776.31;5082027;28;20464;-64
2023/10/22 03:01:22;;;;;;;12.03;4.47;;;21.40;63.80;;;21.87;46.15;94782.09;5078857;28;20562;-60
2023/10/22 03:03:49;;;;;;;15.33;4.50;;;21.40;63.60;;;21.85;45.86;94770.78;5081650;28;20545;-63
2023/10/22 03:06:16;;;;;;;19.53;4.07;;;21.30;63.60;;;21.82;45.85;94772.03;5080302;28;20963;-59
2023/10/22 03:08:45;;;;;;;20.63;4.77;;;21.30;63.80;;;21.78;45.94;94783.38;5081821;28;21048;-61
2023/10/22 03:11:16;;;;;;;18.77;3.90;;;21.20;63.80;;;21.75;45.89;94773.09;5083773;28;20521;-66
2023/10/22 03:13:43;;;;;;;21.73;4.30;;;21.20;63.80;;;21.72;46.34;94773.50;5082278;28;20566;-62
2023/10/22 03:16:14;;;;;;;13.70;4.07;;;21.20;64.20;;;21.70;46.17;94779.06;5078823;28;20577;-65
2023/10/22 03:18:41;;;;;;;22.77;4.57;;;21.20;64.50;;;21.66;46.58;94764.50;5082474;28;20957;-63
2023/10/22 03:21:12;;;;;;;14.73;4.20;;;21.10;64.40;;;21.62;46.46;94758.72;5078260;28;20551;-63
2023/10/22 03:23:41;;;;;;;15.00;3.87;;;21.10;64.40;;;21.59;46.33;94772.53;5077994;28;20451;-64
2023/10/22 03:26:11;;;;;;;17.77;4.27;;;21.10;64.70;;;21.55;46.27;94763.28;5078230;28;20954;-64
2023/10/22 03:28:39;;;;;;;14.60;4.10;;;21.00;64.30;;;21.50;46.41;94752.38;5082293;28;20779;-64
2023/10/22 03:31:06;;;;;;;17.00;4.60;;;21.00;64.50;;;21.43;46.65;94773.78;5077877;28;20571;-60
2023/10/22 03:33:33;;;;;;;20.43;4.00;;;20.90;64.80;;;21.39;46.69;94737.75;5081790;28;20458;-64
2023/10/22 03:36:01;;;;;;;14.27;4.37;;;20.90;65.00;;;21.36;46.67;94767.63;5077634;28;20975;-63
2023/10/22 03:38:28;;;;;;;8.33;3.17;;;20.80;65.00;;;21.32;46.95;94742.31;5077847;28;20451;-61
2023/10/22 03:40:59;;;;;;;19.63;4.30;;;20.80;65.50;;;21.28;46.61;94751.78;5082033;28;20804;-62
2023/10/22 03:43:29;;;;;;;29.07;4.40;;;20.80;65.20;;;21.25;46.97;94752.22;5077480;28;20986;-61
2023/10/22 03:45:56;;;;;;;21.57;4.17;;;20.70;65.60;;;21.23;47.14;94754.28;5077664;28;20538;-59
2023/10/22 03:48:23;;;;;;;17.47;4.37;;;20.70;65.60;;;21.20;47.12;94755.50;5083057;28;20796;-63
2023/10/22 03:50:51;;;;;;;11.37;3.57;;;20.70;65.80;;;21.17;47.25;94757.78;5077932;28;20450;-60
2023/10/22 03:53:18;;;;;;;9.23;3.93;;;20.60;65.90;;;21.15;47.27;94760.69;5077208;28;21147;-65
2023/10/22 03:55:45;;;;;;;11.17;3.57;;;20.60;66.00;;;21.12;47.52;94761.09;5080435;28;20462;-59
2023/10/22 03:58:12;;;;;;;9.93;2.93;;;20.60;66.30;;;21.08;47.27;94766.00;5077590;28;20455;-60
2023/10/22 04:00:41;;;;;;;11.63;4.33;;;20.60;66.40;;;21.05;47.68;94766.47;5081155;28;21038;-59
2023/10/22 04:03:08;;;;;;;12.13;3.63;;;20.60;66.80;;;21.03;47.63;94757.81;5082781;28;21014;-58
2023/10/22 04:05:36;;;;;;;13.60;3.40;;;20.50;66.60;;;21.01;47.63;94777.78;5080791;28;20450;-64
2023/10/22 04:08:03;;;;;;;12.90;3.60;;;20.50;66.70;;;20.99;47.77;94761.09;5077721;28;20447;-65
2023/10/22 04:10:30;;;;;;;9.03;3.80;;;20.50;67.20;;;20.95;47.59;94763.38;5079586;28;20450;-60
2023/10/22 04:12:58;;;;;;;13.37;4.30;;;20.40;67.10;;;20.93;47.60;94776.94;5078064;28;20498;-65
2023/10/22 04:15:25;;;;;;;8.67;4.33;;;20.40;67.10;;;20.90;47.69;94773.88;5080410;28;20858;-64
2023/10/22 04:17:56;;;;;;;15.73;4.30;;;20.40;67.10;;;20.86;47.70;94792.16;5080024;28;20467;-60
2023/10/22 04:20:23;;;;;;;17.50;4.63;;;20.40;67.10;;;20.81;48.00;94802.66;5081524;28;20454;-60
2023/10/22 04:22:51;;;;;;;14.60;3.87;;;20.30;67.10;;;20.75;48.33;94779.41;5077985;28;20476;-66
2023/10/22 04:25:18;;;;;;;20.07;6.33;;;20.30;67.40;;;20.73;47.81;94800.19;5080117;28;21005;-65
2023/10/22 04:27:48;;;;;;;24.77;4.50;;;20.20;67.10;;;20.68;48.23;94805.31;5078792;28;20477;-61
2023/10/22 04:30:15;;;;;;;10.00;3.90;;;20.20;67.60;;;20.62;48.78;94792.72;5080348;28;20659;-65
2023/10/22 04:32:43;;;;;;;15.60;3.37;;;20.20;68.40;;;20.55;48.23;94811.44;5080530;28;20948;-64
2023/10/22 04:35:12;;;;;;;11.47;3.93;;;20.10;68.80;;;20.50;48.66;94803.22;5081435;28;20451;-62
2023/10/22 04:37:39;;;;;;;9.83;4.07;;;20.00;68.60;;;20.41;48.32;94816.75;5077162;28;20473;-62
2023/10/22 04:40:08;;;;;;;11.17;3.70;;;20.00;68.50;;;20.37;48.75;94814.69;5079334;28;20457;-62
2023/10/22 04:42:36;;;;;;;13.73;3.70;;;19.90;68.80;;;20.34;48.92;94815.94;5079635;28;20469;-61
2023/10/22 04:45:03;;;;;;;20.03;4.03;;;19.80;69.10;;;20.31;49.11;94813.66;5079552;28;20982;-63
2023/10/22 04:47:31;;;;;;;14.87;3.57;;;19.80;69.60;;;20.28;48.82;94805.19;5077712;28;20477;-64
2023/10/22 04:49:58;;;;;;;12.73;3.53;;;19.80;69.80;;;20.26;49.48;94839.31;5078954;28;20450;-60
2023/10/22 04:52:31;;;;;;;13.73;3.40;;;19.80;70.20;;;20.20;49.33;94825.75;5078167;28;20518;-64
2023/10/22 04:54:59;;;;;;;7.53;3.93;;;19.70;70.60;;;20.15;49.53;94827.34;5079762;28;20544;-63
2023/10/22 04:57:26;;;;;;;8.97;3.17;;;19.70;70.70;;;20.12;50.24;94838.44;5077568;28;20499;-64
2023/10/22 04:59:54;;;;;;;5.50;3.70;;;19.60;71.60;;;20.07;49.98;94844.38;5078756;28;20533;-60
2023/10/22 05:02:21;;;;;;;14.27;4.83;;;19.60;71.40;;;20.03;50.26;94835.94;5077677;28;20567;-61
2023/10/22 05:04:48;;;;;;;13.57;4.10;;;19.60;72.00;;;20.01;50.57;94840.66;5079336;28;20459;-61
2023/10/22 05:07:16;;;;;;;7.90;3.33;;;19.60;72.10;;;20.00;50.42;94841.69;5077964;28;20466;-60
2023/10/22 05:09:44;;;;;;;12.87;5.90;;;19.50;72.70;;;19.99;50.01;94839.22;5078676;28;20454;-61
2023/10/22 05:12:12;;;;;;;10.43;4.10;;;19.50;72.60;;;19.97;50.86;94825.22;5077735;28;20508;-64
2023/10/22 05:14:39;;;;;;;19.33;4.33;;;19.50;72.70;;;19.96;50.17;94824.41;5079389;28;20512;-65
2023/10/22 05:17:06;;;;;;;12.13;4.33;;;19.50;72.70;;;19.95;50.53;94817.41;5079825;28;20465;-64
2023/10/22 05:19:34;;;;;;;15.27;4.50;;;19.40;72.70;;;19.93;51.03;94826.66;5078429;28;20459;-64
2023/10/22 05:22:01;;;;;;;12.30;3.60;;;19.50;73.60;;;19.90;50.87;94824.41;5082571;28;20472;-59
2023/10/22 05:24:28;;;;;;;26.97;4.50;;;19.40;73.90;;;19.88;51.10;94829.94;5082680;28;20966;-64
2023/10/22 05:26:57;;;;;;;9.97;3.73;;;19.40;74.50;;;19.88;51.57;94821.94;5082872;28;20481;-65
2023/10/22 05:29:25;;;;;;;10.90;3.10;;;19.40;75.00;;;19.86;51.51;94826.63;5081220;28;21086;-68
2023/10/22 05:31:52;;;;;;;10.30;4.20;;;19.40;75.00;;;19.84;51.55;94839.34;5082321;28;20606;-60
2023/10/22 05:34:19;;;;;;;13.07;4.40;;;19.40;75.50;;;19.83;51.41;94835.88;5082030;28;20990;-63
2023/10/22 05:36:47;;;;;;;11.90;4.67;;;19.40;75.90;;;19.85;51.71;94843.69;5082264;28;21001;-62
2023/10/22 05:39:14;;;;;;;9.93;4.70;;;19.40;76.10;;;19.87;51.49;94845.09;5081612;28;20450;-63
2023/10/22 05:41:41;;;;;;;22.37;5.00;;;19.40;76.20;;;19.89;52.00;94858.25;5083070;28;20539;-63
2023/10/22 05:44:10;;;;;;;9.60;3.90;;;19.40;76.50;;;19.88;51.75;94848.63;5080809;28;20443;-63
2023/10/22 05:46:37;;;;;;;12.50;3.77;;;19.40;76.60;;;19.93;51.60;94850.69;5082634;28;20486;-62
2023/10/22 05:49:05;;;;;;;13.97;4.60;;;19.50;76.80;;;19.94;52.18;94866.50;5080921;28;20458;-62
2023/10/22 05:51:33;;;;;;;15.33;5.20;;;19.50;77.10;;;19.95;51.69;94860.13;5082615;28;20584;-65
2023/10/22 05:54:00;;;;;;;12.07;4.50;;;19.50;77.10;;;19.98;52.05;94869.59;5080071;28;20525;-63
2023/10/22 05:56:29;;;;;;;10.43;4.17;;;19.50;77.30;;;20.03;52.03;94872.50;5080460;28;20559;-63
2023/10/22 05:58:56;;;;;;;10.57;4.27;;;19.50;77.60;;;20.08;51.76;94877.22;5083485;28;20446;-63
2023/10/22 06:01:25;;;;;;;23.10;4.60;;;19.60;77.60;;;20.12;51.31;94876.63;5080426;28;20565;-63
2023/10/22 06:03:52;;;;;;;15.83;4.43;;;19.60;77.50;;;20.17;51.34;94884.06;5082962;28;21176;-63
2023/10/22 06:06:20;;;;;;;11.00;4.70;;;19.70;77.40;;;20.21;51.61;94896.00;5082833;28;20534;-63
2023/10/22 06:08:47;;;;;;;8.43;3.33;;;19.70;77.70;;;20.25;51.43;94899.94;5083180;28;20450;-64
2023/10/22 06:11:15;;;;;;;15.70;4.40;;;19.70;77.30;;;20.28;51.52;94904.03;5079353;28;20466;-63
2023/10/22 06:13:42;;;;;;;16.57;3.97;;;19.80;77.40;;;20.31;51.43;94917.00;5082749;28;20493;-63
2023/10/22 06:16:10;;;;;;;11.33;4.90;;;19.80;77.40;;;20.35;51.78;94929.75;5080660;28;20623;-63
2023/10/22 06:18:39;;;;;;;45.63;7.60;;;19.90;78.00;;;20.37;51.44;94919.69;5080507;28;20465;-64
2023/10/22 06:21:13;;;;;;;33.93;6.30;;;19.90;77.90;;;20.44;51.81;94916.25;5080165;28;20471;-64
2023/10/22 06:23:41;;;;;;;10.40;4.70;;;19.90;78.70;;;20.49;51.75;94913.78;5080476;28;20485;-62
2023/10/22 06:26:12;;;;;;;9.00;4.43;;;20.00;78.20;;;20.53;51.42;94926.53;5083054;28;20553;-64
2023/10/22 06:28:40;;;;;;;14.90;4.67;;;20.00;78.00;;;20.53;51.62;94936.41;5079292;28;20453;-64
2023/10/22 06:31:08;;;;;;;13.67;4.70;;;20.00;78.30;;;20.53;52.07;94947.09;5081276;28;20470;-63
2023/10/22 06:33:35;;;;;;;15.70;4.17;;;20.00;79.50;;;20.51;51.95;94938.44;5079597;28;20560;-61
2023/10/22 06:36:14;;;;;;;13.07;4.20;;;20.00;79.80;;;20.55;52.25;94937.03;5081976;28;20820;-62
2023/10/22 06:38:42;;;;;;;8.97;5.03;;;20.00;79.80;;;20.60;52.20;94937.25;5080996;28;20451;-61
2023/10/22 06:41:14;;;;;;;15.37;5.10;;;20.10;79.90;;;20.64;52.85;94945.69;5082525;28;20509;-63
2023/10/22 06:43:41;;;;;;;17.07;4.50;;;20.10;81.00;;;20.67;52.40;94948.00;5079781;28;20455;-63
2023/10/22 06:46:09;;;;;;;13.23;4.50;;;20.20;80.90;;;20.69;52.65;94945.94;5081572;28;20475;-62
2023/10/22 06:48:36;;;;;;;14.43;4.20;;;20.20;81.30;;;20.72;52.82;94943.69;5080075;28;20458;-62
2023/10/22 06:51:09;;;;;;;13.73;3.93;;;20.20;81.70;;;20.79;52.66;94946.41;5081128;28;20532;-62
2023/10/22 06:53:38;;;;;;;7.60;4.60;;;20.30;81.40;;;20.88;52.72;94928.31;5079429;28;20540;-62
2023/10/22 06:56:06;;;;;;;24.83;4.87;;;20.40;81.50;;;21.01;52.68;94936.38;5082378;28;20629;-60
2023/10/22 06:58:34;;;;;;;14.80;4.90;;;20.50;81.90;;;21.20;52.73;94936.59;5079366;28;20974;-61
2023/10/22 07:01:07;;;;;;;15.77;4.83;;;20.60;82.30;;;21.46;52.94;94933.94;5078402;28;20463;-61
2023/10/22 07:03:35;;;;;;;9.83;4.70;;;20.90;82.90;;;21.87;52.77;94929.38;5077824;28;20451;-61
2023/10/22 07:06:02;;;;;;;13.63;5.10;;;21.20;82.90;;;22.42;52.07;94937.13;5078081;28;20475;-61
2023/10/22 07:08:30;;;;;;;15.40;5.30;;;21.70;82.40;;;22.91;51.59;94943.69;5082319;28;20457;-62
2023/10/22 07:10:59;;;;;;;13.13;4.80;;;22.30;80.90;;;23.30;50.01;94940.16;5078707;28;20478;-61
2023/10/22 07:13:26;;;;;;;17.50;4.30;;;22.70;79.00;;;23.74;50.22;94936.50;5081939;28;20489;-60
2023/10/22 07:15:53;;;;;;;8.20;3.87;;;23.10;78.30;;;24.33;48.54;94941.53;5080111;28;20458;-60
2023/10/22 07:18:21;;;;;;;18.07;5.43;;;23.70;75.80;;;24.86;48.29;94943.63;5083312;28;20450;-62
2023/10/22 07:20:49;;;;;;;22.47;5.60;;;24.30;74.90;;;25.24;46.57;94933.56;5078822;28;20901;-61
2023/10/22 07:23:16;;;;;;;21.73;5.00;;;24.60;72.80;;;25.41;46.42;94948.03;5080252;28;20453;-61
2023/10/22 07:25:44;;;;;;;21.43;5.73;;;24.90;70.80;;;25.54;45.17;94943.50;5077737;28;20545;-63
2023/10/22 07:28:15;;;;;;;17.80;5.80;;;25.10;69.50;;;25.56;45.69;94941.38;5080673;28;20454;-61
2023/10/22 07:30:48;;;;;;;27.37;5.67;;;25.10;68.70;;;25.48;45.09;94941.72;5076793;28;20439;-60
2023/10/22 07:33:16;;;;;;;32.73;5.90;;;25.00;68.10;;;25.36;44.76;94947.06;5078641;28;20912;-61
2023/10/22 07:35:53;;;;;;;14.53;6.43;;;24.90;67.70;;;25.23;44.83;94942.69;5080907;28;20449;-59
2023/10/22 07:38:21;;;;;;;25.20;5.37;;;24.80;68.20;;;25.09;45.27;94944.75;5079664;28;20527;-61
2023/10/22 07:40:50;;;;;;;15.20;4.63;;;24.60;66.90;;;24.98;45.07;94934.75;5081929;28;20889;-61
2023/10/22 07:43:19;;;;;;;27.40;5.60;;;24.50;67.80;;;24.87;45.65;94934.47;5078495;28;20474;-60
2023/10/22 07:45:47;;;;;;;34.87;5.53;;;24.40;67.70;;;24.77;45.35;94930.69;5080031;28;20516;-61
2023/10/22 07:48:14;;;;;;;15.97;5.97;;;24.30;67.50;;;24.69;45.23;94924.59;5079897;28;20962;-61
2023/10/22 07:50:41;;;;;;;17.20;6.00;;;24.20;68.20;;;24.64;46.17;94927.13;5080404;28;20446;-61
2023/10/22 07:53:09;;;;;;;14.83;5.37;;;24.10;68.60;;;24.59;45.64;94926.19;5079334;28;20490;-62
2023/10/22 07:55:37;;;;;;;30.67;6.30;;;24.10;68.30;;;24.56;45.89;94915.84;5080423;28;21135;-63
2023/10/22 07:58:04;;;;;;;11.07;4.50;;;24.00;67.70;;;24.56;45.26;94919.34;5079122;28;20476;-62
2023/10/22 08:00:33;;;;;;;13.60;5.37;;;24.00;68.10;;;24.61;45.70;94913.31;5080332;28;20445;-62
2023/10/22 08:03:00;;;;;;;18.70;4.77;;;24.00;68.60;;;24.82;45.80;94907.44;5078134;28;20996;-64
2023/10/22 08:05:29;;;;;;;26.33;7.57;;;24.20;68.00;;;25.21;45.00;94907.91;5080088;28;20465;-62
2023/10/22 08:07:56;;;;;;;13.80;7.60;;;24.50;67.50;;;25.67;44.18;94902.88;5077640;28;21021;-61
2023/10/22 08:10:23;;;;;;;18.30;5.10;;;24.90;67.30;;;26.15;43.54;94900.19;5080081;28;20980;-59
2023/10/22 08:12:51;;;;;;;27.93;5.33;;;25.30;66.30;;;26.64;42.62;94897.94;5077107;28;20575;-63
2023/10/22 08:15:18;;;;;;;30.80;14.13;;;25.80;64.50;;;27.14;41.76;94897.31;5080793;28;20514;-64
2023/10/22 08:17:47;;;;;;;30.47;15.20;;;26.30;63.60;;;27.64;41.14;94894.91;5077361;28;20553;-61
2023/10/22 08:20:14;;;;;;;32.20;6.40;;;26.70;62.00;;;27.96;40.21;94892.44;5081094;28;20506;-71
2023/10/22 08:22:41;;;;;;;21.90;4.50;;;27.10;60.00;;;27.86;39.06;94894.97;5077349;28;20466;-63
2023/10/22 08:25:09;;;;;;;14.37;4.00;;;27.20;58.50;;;27.50;39.73;94900.63;5080257;28;20457;-63
2023/10/22 08:27:36;;;;;;;7.80;4.20;;;27.00;58.10;;;27.09;39.07;94896.38;5076756;28;21006;-59
2023/10/22 08:30:05;;;;;;;29.97;12.40;;;26.60;58.50;;;26.80;40.20;94888.28;5077340;28;20981;-61
2023/10/22 08:32:34;;;;;;;23.17;5.50;;;26.30;58.70;;;26.62;40.03;94892.78;5077389;28;20554;-62
2023/10/22 08:35:04;;;;;;;16.40;4.97;;;26.10;58.80;;;26.39;40.29;94882.88;5078322;28;20486;-68
2023/10/22 08:37:31;;;;;;;13.40;3.20;;;25.90;58.80;;;26.28;40.92;94876.47;5076240;28;21045;-61
2023/10/22 08:40:00;;;;;;;14.60;4.90;;;25.70;59.10;;;26.38;40.57;94875.84;5081526;28;20536;-63
2023/10/22 08:42:28;;;;;;;19.77;4.20;;;25.80;59.60;;;26.65;40.64;94883.41;5081685;28;20523;-62
2023/10/22 08:44:55;;;;;;;14.67;4.30;;;25.90;59.40;;;27.06;39.77;94869.88;5077659;28;20447;-63
2023/10/22 08:47:22;;;;;;;13.87;4.53;;;26.30;59.50;;;27.49;39.19;94861.16;5078026;28;20482;-63
2023/10/22 08:49:50;;;;;;;18.07;4.20;;;26.60;58.30;;;27.76;38.43;94871.28;5078025;28;20442;-62
2023/10/22 08:52:19;;;;;;;14.50;4.93;;;26.90;57.80;;;27.96;38.43;94872.69;5080919;28;20862;-64
2023/10/22 08:54:47;;;;;;;15.67;5.10;;;27.10;57.30;;;28.24;38.06;94872.53;5078618;28;20493;-62
2023/10/22 08:57:14;;;;;;;7.00;3.07;;;27.50;57.00;;;28.70;37.40;94863.38;5081336;28;20473;-63
2023/10/22 08:59:41;;;;;;;12.73;4.30;;;27.80;56.50;;;29.13;37.10;94867.84;5084302;28;20449;-61
2023/10/22 09:02:10;;;;;;;12.30;3.93;;;28.20;55.20;;;29.39;36.05;94870.00;5080823;28;20539;-61
2023/10/22 09:04:37;;;;;;;14.30;4.83;;;28.50;54.00;;;29.59;35.11;94862.06;5084186;28;20461;-64
2023/10/22 09:07:05;;;;;;;11.70;3.70;;;28.70;53.80;;;29.86;35.05;94870.13;5081102;28;20466;-63
2023/10/22 09:09:35;;;;;;;9.67;3.70;;;29.00;53.00;;;30.11;34.22;94865.13;5084235;28;20464;-62
2023/10/22 09:12:03;;;;;;;27.10;4.27;;;29.20;52.60;;;30.46;34.60;94880.78;5081568;28;20533;-62
2023/10/22 09:14:31;;;;;;;21.00;3.60;;;29.50;52.10;;;30.65;34.10;94870.25;5084002;28;20584;-62
2023/10/22 09:16:59;;;;;;;13.33;3.43;;;29.80;51.10;;;30.78;33.06;94859.97;5081030;28;20470;-62
2023/10/22 09:19:37;;;;;;;11.57;3.53;;;29.90;50.70;;;30.86;33.11;94860.28;5084817;28;20450;-62
2023/10/22 09:22:05;;;;;;;18.27;3.67;;;30.00;50.80;;;31.03;32.48;94860.06;5081281;28;20529;-61
2023/10/22 09:24:35;;;;;;;19.23;4.23;;;30.20;49.60;;;30.92;32.45;94874.69;5083912;28;20483;-63
2023/10/22 09:27:03;;;;;;;9.80;3.33;;;30.20;49.50;;;30.83;31.58;94871.69;5081950;28;20788;-63
2023/10/22 09:29:32;;;;;;;11.23;3.53;;;30.10;48.50;;;30.74;32.31;94857.81;5083824;28;20555;-61
2023/10/22 09:32:00;;;;;;;18.23;3.97;;;30.00;48.80;;;30.60;31.61;94859.41;5083189;28;20474;-62
2023/10/22 09:34:28;;;;;;;23.07;4.27;;;29.90;48.40;;;30.35;32.06;94851.91;5084431;28;20485;-62
2023/10/22 09:36:56;;;;;;;14.43;3.10;;;29.70;48.50;;;30.41;33.20;94852.78;5085016;28;20589;-61
2023/10/22 09:39:37;;;;;;;14.53;4.07;;;29.70;49.10;;;30.61;31.86;94849.34;5081165;28;20446;-62
2023/10/22 09:42:05;;;;;;;15.07;3.40;;;29.70;48.90;;;30.62;31.86;94843.66;5081288;28;20465;-63
2023/10/22 09:44:33;;;;;;;59.27;4.40;;;29.80;48.60;;;30.55;32.20;94841.19;5083622;28;20533;-63
2023/10/22 09:47:02;;;;;;;13.13;4.43;;;29.80;48.10;;;30.38;31.82;94854.94;5081486;28;20977;-61
2023/10/22 09:49:30;;;;;;;18.20;3.87;;;29.70;48.20;;;30.31;31.84;94827.22;5082785;28;20817;-62
2023/10/22 09:51:59;;;;;;;11.70;2.97;;;29.60;48.00;;;30.34;31.56;94825.88;5080988;28;20488;-63
2023/10/22 09:54:38;;;;;;;13.43;3.77;;;29.60;47.90;;;30.37;31.48;94817.22;5082767;28;20522;-62
2023/10/22 09:57:09;;;;;;;23.80;3.67;;;29.60;47.90;;;30.27;32.33;94820.72;5084026;28;21053;-61
2023/10/22 09:59:38;;;;;;;30.60;5.27;;;29.60;48.00;;;30.24;32.41;94812.25;5080504;28;20622;-62
2023/10/22 10:02:05;;;;;;;14.33;4.10;;;29.50;48.40;;;30.23;32.38;94803.31;5083026;28;20478;-63
2023/10/22 10:04:33;;;;;;;17.30;4.90;;;29.50;48.00;;;30.27;31.45;94820.72;5080569;28;20203;-61
2023/10/22 10:07:03;;;;;;;30.93;5.63;;;29.50;48.00;;;30.30;32.12;94820.16;5081727;28;20505;-61
2023/10/22 10:09:31;;;;;;;24.13;5.10;;;29.60;48.20;;;30.35;31.44;94822.06;5080524;28;20486;-60
2023/10/22 10:12:01;;;;;;;13.80;4.70;;;29.60;47.80;;;30.49;32.36;94823.25;5083019;28;20565;-62
2023/10/22 10:14:46;;;;;;;23.80;4.90;;;29.70;48.20;;;30.77;31.39;94825.75;5080662;28;20231;-62
2023/10/22 10:17:14;;;;;;;23.73;5.43;;;29.90;47.40;;;30.90;31.34;94817.91;5080516;28;20220;-62